createdAt,value
2018-05-18T00:03:06.381Z,7.20
2018-05-18T00:08:09.478Z,7.03
2018-05-18T00:13:12.971Z,8.20
2018-05-18T00:18:16.089Z,9.30
2018-05-18T00:23:20.842Z,10.00
2018-05-18T00:28:24.407Z,10.57
2018-05-18T00:33:28.647Z,10.20
2018-05-18T00:38:31.807Z,10.50
2018-05-18T00:43:35.711Z,10.20
2018-05-18T00:48:38.797Z,10.63
2018-05-18T00:53:42.415Z,11.10
2018-05-18T00:58:46.344Z,10.47
2018-05-18T01:03:49.494Z,9.80
2018-05-18T01:08:53.072Z,9.20
2018-05-18T01:13:56.250Z,8.57
2018-05-18T01:18:59.447Z,8.63
2018-05-18T01:24:02.595Z,8.43
2018-05-18T01:29:07.143Z,8.20
2018-05-18T01:34:11.111Z,8.33
2018-05-18T01:39:15.023Z,10.07
2018-05-18T01:44:18.990Z,9.07
2018-05-18T01:49:22.946Z,9.00
2018-05-18T01:54:26.179Z,8.03
2018-05-18T01:59:29.542Z,8.13
2018-05-18T02:04:33.652Z,9.43
2018-05-18T02:09:37.935Z,8.57
2018-05-18T02:14:41.102Z,8.20
2018-05-18T02:19:44.587Z,8.40
2018-05-18T02:24:48.806Z,8.80
2018-05-18T02:29:51.927Z,8.67
2018-05-18T02:34:55.015Z,9.17
2018-05-18T02:39:58.891Z,9.40
2018-05-18T02:45:03.477Z,9.20
2018-05-18T02:50:06.745Z,8.70
2018-05-18T02:55:09.971Z,11.00
2018-05-18T03:00:14.057Z,9.80
2018-05-18T03:05:17.622Z,9.67
2018-05-18T03:10:21.855Z,10.13
2018-05-18T03:15:24.959Z,10.50
2018-05-18T03:20:29.183Z,10.23
2018-05-18T03:25:32.315Z,10.20
2018-05-18T03:30:36.178Z,10.37
2018-05-18T03:35:39.269Z,11.80
2018-05-18T03:40:43.150Z,13.37
2018-05-18T03:45:46.251Z,17.03
2018-05-18T03:50:50.275Z,21.80
2018-05-18T03:55:54.365Z,25.03
2018-05-18T04:00:57.952Z,25.80
2018-05-18T04:11:48.284Z,29.33
2018-05-18T04:16:52.139Z,30.67
2018-05-18T04:21:55.244Z,34.43
2018-05-18T04:26:58.483Z,30.17
2018-05-18T04:32:02.447Z,30.37
2018-05-18T04:37:06.391Z,33.00
2018-05-18T04:42:09.884Z,35.60
2018-05-18T04:47:13.758Z,36.23
2018-05-18T04:52:18.383Z,38.20
2018-05-18T04:57:21.508Z,40.57
2018-05-18T05:02:24.622Z,39.87
2018-05-18T05:07:27.702Z,37.83
2018-05-18T05:12:30.869Z,36.47
2018-05-18T05:17:33.929Z,37.53
2018-05-18T05:22:37.027Z,36.70
2018-05-18T05:27:40.130Z,28.97
2018-05-18T05:32:43.236Z,26.43
2018-05-18T05:37:46.355Z,22.90
2018-05-18T05:42:50.226Z,20.30
2018-05-18T05:47:53.326Z,17.57
2018-05-18T05:52:56.431Z,16.03
2018-05-18T05:57:59.517Z,13.43
2018-05-18T06:03:03.383Z,12.70
2018-05-18T06:08:06.487Z,13.30
2018-05-18T06:13:09.607Z,13.90
2018-05-18T06:18:13.844Z,14.37
2018-05-18T06:23:16.953Z,13.52
2018-05-18T06:28:20.839Z,17.87
2018-05-18T06:33:23.995Z,21.90
2018-05-18T06:38:28.422Z,23.17
2018-05-18T06:43:32.870Z,24.10
2018-05-18T06:48:37.098Z,26.53
2018-05-18T06:53:40.177Z,28.27
2018-05-18T06:58:43.403Z,31.27
2018-05-18T07:03:46.544Z,35.90
2018-05-18T07:08:49.859Z,37.53
2018-05-18T07:13:52.968Z,40.27
2018-05-18T07:18:56.059Z,40.12
2018-05-18T07:24:00.303Z,39.33
2018-05-18T07:29:04.746Z,41.20
2018-05-18T07:34:09.341Z,38.37
2018-05-18T07:39:12.437Z,39.47
2018-05-18T07:44:15.527Z,39.67
2018-05-18T07:49:18.651Z,37.17
2018-05-18T07:54:21.749Z,35.90
2018-05-18T07:59:24.899Z,35.87
2018-05-18T08:04:27.943Z,33.37
2018-05-18T08:09:31.038Z,30.73
2018-05-18T08:14:34.136Z,31.00
2018-05-18T08:19:38.572Z,27.87
2018-05-18T08:24:43.358Z,30.93
2018-05-18T08:29:47.791Z,27.90
2018-05-18T08:34:50.874Z,24.00
2018-05-18T08:39:55.322Z,21.43
2018-05-18T08:44:59.927Z,15.63
2018-05-18T08:50:04.449Z,15.23
2018-05-18T08:55:08.810Z,14.33
2018-05-18T09:00:12.297Z,13.50
2018-05-18T09:05:15.411Z,14.67
2018-05-18T09:10:18.506Z,16.30
2018-05-18T09:15:22.951Z,18.13
2018-05-18T09:20:26.843Z,25.70
2018-05-18T09:25:31.282Z,27.73
2018-05-18T09:30:35.164Z,28.03
2018-05-18T09:35:39.582Z,25.83
2018-05-18T09:40:43.087Z,26.03
2018-05-18T09:45:46.179Z,22.42
2018-05-18T09:50:49.282Z,24.50
2018-05-18T09:55:53.151Z,24.03
2018-05-18T10:00:56.250Z,23.63
2018-05-18T10:05:59.346Z,25.23
2018-05-18T10:11:03.566Z,22.10
2018-05-18T10:16:08.010Z,17.07
2018-05-18T10:21:11.107Z,17.00
2018-05-18T10:26:14.958Z,15.43
2018-05-18T10:31:19.396Z,15.47
2018-05-18T10:36:22.871Z,15.63
2018-05-18T10:41:27.319Z,16.93
2018-05-18T10:46:31.907Z,15.30
2018-05-18T10:51:36.363Z,15.70
2018-05-18T10:56:40.795Z,15.90
2018-05-18T11:01:44.270Z,16.63
2018-05-18T11:06:48.120Z,14.20
2018-05-18T11:11:52.558Z,15.10
2018-05-18T11:16:56.987Z,12.00
2018-05-18T11:22:00.851Z,11.40
2018-05-18T11:27:04.332Z,9.20
2018-05-18T11:32:07.490Z,9.90
2018-05-18T11:37:12.210Z,8.90
2018-05-18T11:42:15.691Z,8.53
2018-05-18T11:47:18.794Z,9.00
2018-05-18T11:52:22.643Z,7.43
2018-05-18T11:57:25.746Z,8.30
2018-05-18T12:02:29.143Z,9.07
2018-05-18T12:07:32.903Z,9.93
2018-05-18T12:12:37.119Z,8.63
2018-05-18T12:17:40.214Z,9.17
2018-05-18T12:22:44.668Z,9.47
2018-05-18T12:27:47.760Z,9.40
2018-05-18T12:32:50.839Z,7.93
2018-05-18T12:37:54.682Z,8.37
2018-05-18T12:42:59.488Z,6.43
2018-05-18T12:48:03.918Z,7.60
2018-05-18T12:53:07.007Z,7.37
2018-05-18T12:58:10.090Z,7.00
2018-05-18T13:03:13.174Z,6.60
2018-05-18T13:08:16.354Z,6.72
2018-05-18T13:13:20.479Z,6.13
2018-05-18T13:18:23.559Z,7.53
2018-05-18T13:23:27.990Z,7.20
2018-05-18T13:28:32.420Z,6.67
2018-05-18T13:33:36.268Z,6.80
2018-05-18T13:38:39.408Z,6.73
2018-05-18T13:43:43.210Z,7.63
2018-05-18T13:48:46.308Z,6.77
2018-05-18T13:53:49.390Z,6.97
2018-05-18T13:58:53.615Z,6.30
2018-05-18T14:03:57.099Z,6.23
2018-05-18T14:09:01.324Z,6.00
2018-05-18T14:14:04.410Z,6.37
2018-05-18T14:19:08.262Z,6.13
2018-05-18T14:24:11.347Z,5.97
2018-05-18T14:29:15.567Z,5.83
2018-05-18T14:34:18.659Z,5.50
2018-05-18T14:39:21.743Z,5.50
2018-05-18T14:44:24.834Z,5.97
2018-05-18T14:49:29.063Z,5.90
2018-05-18T14:54:33.510Z,6.40
2018-05-18T14:59:36.988Z,5.53
2018-05-18T15:04:41.208Z,5.13
2018-05-18T15:09:44.686Z,5.77
2018-05-18T15:14:49.126Z,5.47
2018-05-18T15:19:52.603Z,5.80
2018-05-18T15:24:56.525Z,6.00
2018-05-18T15:30:00.684Z,5.80
2018-05-18T15:35:05.118Z,5.00
2018-05-18T15:40:08.598Z,5.20
2018-05-18T15:45:11.678Z,5.60
2018-05-18T15:50:14.771Z,5.63
2018-05-18T15:55:19.217Z,4.90
2018-05-18T16:00:23.071Z,5.18
2018-05-18T16:05:26.923Z,5.23
2018-05-18T16:10:31.184Z,5.33
2018-05-18T16:15:35.625Z,5.60
2018-05-18T16:20:40.215Z,5.30
2018-05-18T16:25:43.298Z,5.80
2018-05-18T16:30:46.387Z,5.20
2018-05-18T16:35:50.621Z,5.27
2018-05-18T16:40:54.462Z,4.90
2018-05-18T16:45:57.546Z,4.97
2018-05-18T16:51:01.779Z,5.43
2018-05-18T16:56:06.221Z,5.93
2018-05-18T17:01:10.825Z,8.60
2018-05-18T17:06:13.923Z,6.07
2018-05-18T17:11:17.015Z,5.97
2018-05-18T17:16:20.123Z,4.43
2018-05-18T17:21:23.213Z,5.00
2018-05-18T17:26:27.074Z,5.50
2018-05-18T17:31:30.159Z,5.60
2018-05-18T17:36:34.015Z,5.23
2018-05-18T17:41:38.243Z,5.13
2018-05-18T17:46:42.835Z,6.00
2018-05-18T17:51:46.316Z,5.57
2018-05-18T17:56:49.411Z,5.50
2018-05-18T18:01:53.275Z,5.97
2018-05-18T18:06:56.754Z,5.83
2018-05-18T18:11:59.848Z,5.30
2018-05-18T18:17:05.020Z,5.60
2018-05-18T18:22:08.106Z,5.47
2018-05-18T18:27:11.195Z,6.27
2018-05-18T18:32:14.319Z,5.70
2018-05-18T18:37:18.783Z,6.60
2018-05-18T18:42:23.011Z,5.67
2018-05-18T18:47:26.504Z,4.90
2018-05-18T18:52:29.595Z,5.60
2018-05-18T18:57:32.695Z,4.57
2018-05-18T19:02:36.694Z,5.00
2018-05-18T19:07:39.782Z,4.47
2018-05-18T19:12:45.346Z,4.40
2018-05-18T19:17:48.934Z,5.13
2018-05-18T19:22:53.159Z,4.43
2018-05-18T19:27:56.246Z,4.80
2018-05-18T19:32:59.723Z,4.30
2018-05-18T19:38:02.807Z,4.97
2018-05-18T19:43:06.350Z,4.70
2018-05-18T19:48:09.453Z,4.60
2018-05-18T19:53:14.011Z,5.13
2018-05-18T19:58:18.027Z,4.97
2018-05-18T20:03:21.132Z,5.43
2018-05-18T20:08:26.620Z,6.07
2018-05-18T20:13:29.707Z,6.30
2018-05-18T20:18:33.192Z,5.97
2018-05-18T20:23:36.391Z,5.63
2018-05-18T20:28:40.246Z,5.97
2018-05-18T20:33:44.179Z,5.67
2018-05-18T20:38:47.862Z,5.50
2018-05-18T20:43:50.958Z,5.20
2018-05-18T20:48:54.159Z,5.47
2018-05-18T20:53:58.129Z,5.97
2018-05-18T20:59:02.151Z,6.23
2018-05-18T21:04:05.281Z,5.90
2018-05-18T21:09:08.447Z,5.63
2018-05-18T21:14:13.488Z,6.07
2018-05-18T21:19:17.382Z,5.72
2018-05-18T21:24:20.994Z,5.93
2018-05-18T21:29:24.105Z,5.77
2018-05-18T21:34:27.210Z,6.30
2018-05-18T21:39:30.700Z,6.00
2018-05-18T21:44:34.943Z,6.50
2018-05-18T21:49:38.051Z,6.50
2018-05-18T21:54:41.147Z,6.57
2018-05-18T21:59:45.382Z,6.93
2018-05-18T22:04:49.249Z,6.60
2018-05-18T22:09:53.859Z,6.77
2018-05-18T22:14:57.919Z,7.43
2018-05-18T22:20:02.558Z,7.07
2018-05-18T22:25:07.040Z,7.50
2018-05-18T22:30:10.899Z,8.20
2018-05-18T22:35:14.770Z,7.43
2018-05-18T22:40:18.700Z,7.33
2018-05-18T22:45:22.572Z,7.23
2018-05-18T22:50:26.891Z,7.03
2018-05-18T22:55:29.976Z,7.23
2018-05-18T23:00:33.826Z,7.97
2018-05-18T23:05:37.687Z,7.53
2018-05-18T23:10:40.766Z,7.10
2018-05-18T23:15:43.854Z,7.17
2018-05-18T23:20:46.943Z,7.13
2018-05-18T23:25:51.276Z,7.00
2018-05-18T23:30:54.259Z,7.73
2018-05-18T23:35:57.346Z,7.20
2018-05-18T23:41:00.648Z,7.70
2018-05-18T23:46:03.820Z,7.40
2018-05-18T23:51:07.667Z,7.70
2018-05-18T23:56:10.762Z,7.50
